Aérodrome :
LOGIN :

S'inscrire | Disclaimer

   EN    FR    IT 

 










Légende :    VFR   VFR Marginal   IFR   IFR Intensif   IFR Très Intensif
Visi : 
Plafond : 
>= 8 km
>= 3000ft
5 à 8 km
1000 à 3000 ft
1500m à 5 km
500 à 1000 ft
800 à 1500m
200 à 500 ft
< 800m
< 200 ft
Symboles :   Orages  Brouillard  Fortes neiges  Fortes précipitations  Vent > 20 kt
SIGMETs :   Divers  Orages  Givrage  Turbulence  Onde Orograph.  Cendres Volcan.






- Altitude de l'aérodrome : 197 ft
- Code IATA : XOG


LFMO - Orange

DERNIER METAR :
  • 300900Z AUTO 35020KT CAVOK 14/08 Q1008 TEMPO 35020G35KT

METARs EXPIRÉS :
  • 300830Z AUTO 36018G32KT CAVOK 14/08 Q1008 NOSIG
  • 300800Z AUTO 35018KT CAVOK 14/08 Q1008 BECMG 35015G25KT
  • 300730Z AUTO 35020KT CAVOK 13/07 Q1007 BECMG 35015G25KT
  • 300700Z AUTO 34019KT CAVOK 13/08 Q1007 BECMG 35015G25KT
  • 300630Z AUTO 34019KT CAVOK 13/07 Q1006 BECMG 35015G25KT

TAF TAF LFMO
Valide du 30 à 09h jusqu'au 01 à 09h UTC


300800Z 3009/0109 35015G25KT CAVOK TX18/3015Z TN09/0104Z
TEMPO 3009/3015 35020G35KT
BECMG 0103/0105 31008KT



MET'MAP, la Météo Aéronautique d'un coup d'oeil ! - Copyright ORBIFLY Décembre 2007 - Disclaimer

ORBIFLY MET'MAP TEAM :

Programmation & Développement : Alexandra Zaïnal
Sur une idée originale de : Baudouin d'Aumeries
Soutien technique & logistique : Manuel Goepfert
Assistance : Marc-Olivier Méhu




SOURCES & CREDITS :

   NOAA